首页
METAR-TAF:

METAR-TAF

机场 :

Bleibler Ranch Aerodrome

克林顿, 不列颠哥伦比亚, 加拿大

纬度: 51-15-59N, 经度: 121-41-05W, 海拔: 1126米

当前天气观测

该预报发布于21分钟前的22:00 UTC
风速7节,风向东北,在北转东北之间变化
温度 19°C
湿度 30%
气压 1016 hPa
能見度: 14.5公里
天空无云

METAR: CYIN 262200Z AUTO 04007KT 020V090 9SM CLR 19/01 A2999 RMK SLP161 DENSITY ALT 4900FT

时间: 15:21 (22:21 UTC)


TAF: 丢失

超过4000个机场的气象观测和天气预报(METAR&TAF报告)。

可查询的气象台以黄色和红色小点在地图上表示。

将鼠标移到小点上方,可查看气象台名称。

然后点击查看天气观测和预报。

如需切换地图:点击带黑十字的绿色按钮放大地图;点击带横线的绿色按钮缩小地图;或者点击绿色箭头查看邻近地区的地图。


METAR-TAF: